Time;durP1;ratioP1;P1;durP2;ratioP2;P2;SDS_P1;SDS_P2;PMS_P1;PMS_P2;Temp;Humidity;BMP_temperature;BMP_pressure;BME280_temperature;BME280_humidity;BME280_pressure;Samples;Min_cycle;Max_cycle;Signal;HPM_P1;HPM_P2
2023/12/15 00:00:58;;;;;;;;;;;;;;;16.17;47.68;100461.28;4960629;28;1156;-53
2023/12/15 00:03:23;;;;;;;;;;;;;;;17.50;47.57;100464.31;4960038;28;1918;-52
2023/12/15 00:05:49;;;;;;;;;;;;;;;16.55;47.95;100477.88;4960158;28;1009;-54
2023/12/15 00:08:14;;;;;;;;;;;;;;;16.19;47.46;100485.91;4960473;28;880;-52
2023/12/15 00:10:40;;;;;;;;;;;;;;;17.86;47.03;100504.00;4972417;28;1124;-52
2023/12/15 00:13:05;;;;;;;;;;;;;;;16.58;48.18;100509.50;4968049;28;1395;-52
2023/12/15 00:15:31;;;;;;;;;;;;;;;16.28;47.28;100497.66;4966410;28;1229;-54
2023/12/15 00:17:56;;;;;;;;;;;;;;;17.07;48.84;100511.13;4971232;28;1160;-53
2023/12/15 00:20:22;;;;;;;;;;;;;;;16.87;47.94;100517.06;4960111;28;891;-53
2023/12/15 00:22:47;;;;;;;;;;;;;;;16.25;48.12;100524.41;4968486;28;1973;-50
2023/12/15 00:25:13;;;;;;;;;;;;;;;16.94;48.72;100530.69;4953966;28;1083;-50
2023/12/15 00:27:38;;;;;;;;;;;;;;;16.68;48.28;100530.94;4971432;28;1231;-50
2023/12/15 00:30:04;;;;;;;;;;;;;;;16.21;47.95;100522.94;4959882;28;1069;-52
2023/12/15 00:32:30;;;;;;;;;;;;;;;16.48;48.66;100522.66;4959790;28;900;-54
2023/12/15 00:34:55;;;;;;;;;;;;;;;17.13;47.85;100522.16;4959535;28;1053;-50
2023/12/15 00:37:21;;;;;;;;;;;;;;;16.38;48.00;100516.38;4960423;28;1039;-51
2023/12/15 00:39:47;;;;;;;;;;;;;;;16.04;47.52;100527.72;4959624;28;1196;-53
2023/12/15 00:42:13;;;;;;;;;;;;;;;17.44;47.56;100521.53;4959966;28;1914;-52
2023/12/15 00:44:38;;;;;;;;;;;;;;;16.52;48.09;100520.63;4959498;28;1021;-51
2023/12/15 00:47:04;;;;;;;;;;;;;;;16.19;47.28;100535.47;4959671;28;1073;-51
2023/12/15 00:49:29;;;;;;;;;;;;;;;17.62;47.77;100536.94;4959370;28;1096;-51
2023/12/15 00:51:55;;;;;;;;;;;;;;;16.62;48.33;100524.25;4959679;28;1037;-53
2023/12/15 00:54:20;;;;;;;;;;;;;;;16.24;48.00;100533.34;4959179;28;1084;-50
2023/12/15 00:56:46;;;;;;;;;;;;;;;17.94;46.98;100548.59;4966467;28;995;-52
2023/12/15 00:59:11;;;;;;;;;;;;;;;16.62;48.05;100553.47;4977893;28;1069;-52
2023/12/15 01:01:37;;;;;;;;;;;;;;;16.23;47.58;100563.50;4959212;28;1906;-52
2023/12/15 01:04:02;;;;;;;;;;;;;;;17.32;47.94;100562.38;4959371;28;1121;-52
2023/12/15 01:06:29;;;;;;;;;;;;;;;16.41;48.10;100566.59;4959774;28;1223;-50
2023/12/15 01:08:54;;;;;;;;;;;;;;;16.16;47.50;100579.03;4959115;28;967;-51
2023/12/15 01:11:20;;;;;;;;;;;;;;;17.37;47.70;100570.81;4959300;28;1074;-51
2023/12/15 01:13:45;;;;;;;;;;;;;;;16.39;48.40;100564.03;4946611;28;1113;-51
2023/12/15 01:16:11;;;;;;;;;;;;;;;16.17;47.14;100567.44;4957388;28;1380;-54
2023/12/15 01:18:36;;;;;;;;;;;;;;;15.95;46.94;100579.59;4959220;28;1060;-51
2023/12/15 01:21:02;;;;;;;;;;;;;;;17.24;48.25;100598.41;4946549;28;1007;-55
2023/12/15 01:23:27;;;;;;;;;;;;;;;16.53;48.11;100604.66;4958496;28;1994;-51
2023/12/15 01:25:53;;;;;;;;;;;;;;;17.46;47.93;100598.50;4958768;28;1077;-52
2023/12/15 01:28:18;;;;;;;;;;;;;;;17.81;46.69;100594.00;4959110;28;1127;-54
2023/12/15 01:30:44;;;;;;;;;;;;;;;16.73;48.26;100583.69;4958891;28;1151;-51
2023/12/15 01:33:09;;;;;;;;;;;;;;;16.24;47.54;100573.16;4958614;28;1046;-53
2023/12/15 01:35:35;;;;;;;;;;;;;;;16.17;46.74;100572.75;4958556;28;1089;-53
2023/12/15 01:38:00;;;;;;;;;;;;;;;16.60;48.75;100579.28;4958957;28;1126;-51
2023/12/15 01:40:26;;;;;;;;;;;;;;;17.11;48.38;100581.72;4958495;28;1264;-50
2023/12/15 01:42:51;;;;;;;;;;;;;;;16.38;47.99;100580.09;4958611;28;1965;-51
2023/12/15 01:45:17;;;;;;;;;;;;;;;16.82;49.01;100580.31;4958747;28;1168;-48
2023/12/15 01:47:43;;;;;;;;;;;;;;;17.30;47.82;100578.44;4958501;28;1223;-51
2023/12/15 01:50:08;;;;;;;;;;;;;;;16.45;48.10;100589.25;4957138;28;1126;-51
2023/12/15 01:52:34;;;;;;;;;;;;;;;18.14;47.28;100596.72;4959097;28;1061;-53
2023/12/15 01:54:59;;;;;;;;;;;;;;;16.94;48.43;100597.13;4958404;28;1220;-52
2023/12/15 01:57:25;;;;;;;;;;;;;;;16.49;47.68;100597.84;4944628;29;1006;-53
2023/12/15 01:59:50;;;;;;;;;;;;;;;16.24;48.10;100594.38;4958084;28;1042;-51
2023/12/15 02:02:16;;;;;;;;;;;;;;;17.17;48.14;100601.63;4966782;28;1914;-51
2023/12/15 02:04:42;;;;;;;;;;;;;;;16.44;47.89;100600.84;4958619;28;1041;-49
2023/12/15 02:07:07;;;;;;;;;;;;;;;16.69;48.63;100612.28;4957870;28;1041;-51
2023/12/15 02:09:33;;;;;;;;;;;;;;;16.86;48.21;100612.81;4957762;28;1069;-51
2023/12/15 02:11:58;;;;;;;;;;;;;;;16.35;47.93;100614.84;4958424;28;1184;-52
2023/12/15 02:14:24;;;;;;;;;;;;;;;16.13;47.32;100616.41;4971189;28;1074;-53
2023/12/15 02:16:49;;;;;;;;;;;;;;;17.40;48.25;100618.44;4957945;28;1053;-52
2023/12/15 02:19:15;;;;;;;;;;;;;;;16.53;48.11;100633.84;4958048;28;1029;-49
2023/12/15 02:21:40;;;;;;;;;;;;;;;16.25;47.69;100644.69;4958126;28;1907;-51
2023/12/15 02:24:06;;;;;;;;;;;;;;;17.00;47.94;100651.59;4957179;28;1124;-50
2023/12/15 02:26:31;;;;;;;;;;;;;;;16.38;47.91;100652.59;4958043;28;1089;-50
2023/12/15 02:28:57;;;;;;;;;;;;;;;16.78;49.04;100663.88;4957977;28;1121;-51
2023/12/15 02:31:24;;;;;;;;;;;;;;;16.93;48.03;100658.38;4957880;28;1156;-51
2023/12/15 02:33:49;;;;;;;;;;;;;;;16.30;48.10;100665.59;4957780;28;1057;-53
2023/12/15 02:36:18;;;;;;;;;;;;;;;16.39;47.81;100675.56;4957858;28;1097;-53
2023/12/15 02:38:44;;;;;;;;;;;;;;;17.43;47.40;100675.88;4957431;28;1047;-53
2023/12/15 02:41:12;;;;;;;;;;;;;;;16.52;47.94;100690.56;4958031;28;1098;-52
2023/12/15 02:43:38;;;;;;;;;;;;;;;16.26;48.06;100693.34;4957912;28;1906;-52
2023/12/15 02:46:04;;;;;;;;;;;;;;;17.28;47.62;100688.56;4957528;28;995;-53
2023/12/15 02:48:29;;;;;;;;;;;;;;;16.44;47.82;100682.31;4957189;28;1037;-52
2023/12/15 02:50:55;;;;;;;;;;;;;;;16.22;46.79;100684.75;4957779;28;1041;-51
2023/12/15 02:53:20;;;;;;;;;;;;;;;16.98;48.54;100704.03;4957569;28;1128;-50
2023/12/15 02:55:46;;;;;;;;;;;;;;;17.00;47.89;100702.09;4957777;28;1045;-51
2023/12/15 02:58:12;;;;;;;;;;;;;;;16.31;48.08;100704.47;4957162;28;1180;-53
2023/12/15 03:00:37;;;;;;;;;;;;;;;16.01;46.96;100711.88;4957597;28;1161;-52
2023/12/15 03:03:04;;;;;;;;;;;;;;;16.87;48.14;100721.63;4957606;28;1906;-49
2023/12/15 03:05:29;;;;;;;;;;;;;;;16.13;48.09;100722.56;4957611;28;1112;-53
2023/12/15 03:07:55;;;;;;;;;;;;;;;16.49;48.58;100714.69;4957468;28;1185;-53
2023/12/15 03:10:20;;;;;;;;;;;;;;;17.01;47.72;100709.13;4957467;29;1136;-52
2023/12/15 03:12:46;;;;;;;;;;;;;;;16.27;47.63;100714.44;4970300;28;1203;-50
2023/12/15 03:15:11;;;;;;;;;;;;;;;16.37;48.52;100719.94;4969740;28;1165;-56
2023/12/15 03:17:37;;;;;;;;;;;;;;;17.28;47.36;100731.09;4970747;28;1120;-52
2023/12/15 03:20:03;;;;;;;;;;;;;;;16.35;47.84;100740.44;4957264;28;1010;-52
2023/12/15 03:22:29;;;;;;;;;;;;;;;16.09;47.27;100753.78;4962866;28;1906;-52
2023/12/15 03:24:55;;;;;;;;;;;;;;;16.77;48.58;100763.13;4964377;28;1410;-53
2023/12/15 03:27:20;;;;;;;;;;;;;;;16.79;48.06;100757.69;4970718;28;1149;-53
2023/12/15 03:29:46;;;;;;;;;;;;;;;16.15;48.02;100760.44;4956760;28;1061;-51
2023/12/15 03:32:11;;;;;;;;;;;;;;;16.37;47.91;100767.72;4957433;28;1136;-51
2023/12/15 03:34:37;;;;;;;;;;;;;;;17.09;47.67;100770.53;4957476;28;993;-48
2023/12/15 03:37:02;;;;;;;;;;;;;;;16.28;47.83;100771.88;4957068;28;1057;-52
2023/12/15 03:39:28;;;;;;;;;;;;;;;16.19;48.34;100784.97;4957044;28;1085;-53
2023/12/15 03:41:53;;;;;;;;;;;;;;;16.46;48.40;100789.25;4962229;28;1906;-52
2023/12/15 03:44:19;;;;;;;;;;;;;;;16.45;48.86;100807.00;4965366;28;1139;-50
2023/12/15 03:46:44;;;;;;;;;;;;;;;18.08;46.38;100814.50;4960323;28;1045;-52
2023/12/15 03:49:10;;;;;;;;;;;;;;;16.65;48.00;100812.66;4960553;28;1132;-52
2023/12/15 03:51:36;;;;;;;;;;;;;;;16.21;47.46;100809.59;4959941;28;1084;-50
2023/12/15 03:54:01;;;;;;;;;;;;;;;16.55;48.45;100824.94;4961052;28;1045;-54
2023/12/15 03:56:27;;;;;;;;;;;;;;;16.82;48.31;100831.84;4960302;28;1123;-51
2023/12/15 03:58:53;;;;;;;;;;;;;;;16.34;47.53;100842.28;4960667;28;1119;-52
2023/12/15 04:01:19;;;;;;;;;;;;;;;17.83;47.29;100848.34;4958704;28;1212;-51
2023/12/15 04:03:44;;;;;;;;;;;;;;;16.67;48.29;100839.97;4971416;28;1977;-51
2023/12/15 04:06:10;;;;;;;;;;;;;;;16.32;47.18;100849.50;4962148;28;1152;-50
2023/12/15 04:08:35;;;;;;;;;;;;;;;16.03;46.59;100847.09;4960065;28;1057;-53
2023/12/15 04:11:01;;;;;;;;;;;;;;;16.28;47.48;100845.38;4960319;28;1224;-52
2023/12/15 04:13:27;;;;;;;;;;;;;;;17.25;47.56;100865.94;4960273;28;1077;-53
2023/12/15 04:15:52;;;;;;;;;;;;;;;16.27;47.85;100859.59;4960290;28;1029;-49
2023/12/15 04:18:18;;;;;;;;;;;;;;;17.04;48.74;100857.72;4959775;28;1139;-52
2023/12/15 04:20:43;;;;;;;;;;;;;;;17.21;47.75;100867.16;4959674;28;1566;-50
2023/12/15 04:23:09;;;;;;;;;;;;;;;16.40;47.92;100852.47;4959858;28;1902;-48
2023/12/15 04:25:34;;;;;;;;;;;;;;;16.23;47.64;100860.78;4960173;28;1096;-47
2023/12/15 04:28:00;;;;;;;;;;;;;;;17.21;47.81;100869.81;4960109;28;1172;-51
2023/12/15 04:30:25;;;;;;;;;;;;;;;16.44;48.00;100863.72;4959509;28;1033;-51
2023/12/15 04:32:51;;;;;;;;;;;;;;;16.08;46.98;100865.34;4959389;28;1145;-51
2023/12/15 04:35:16;;;;;;;;;;;;;;;17.24;48.29;100879.34;4968901;28;1256;-52
2023/12/15 04:37:44;;;;;;;;;;;;;;;16.50;48.02;100868.59;4973632;28;1152;-50
2023/12/15 04:40:10;;;;;;;;;;;;;;;17.16;48.49;100876.41;4962135;28;1124;-52
2023/12/15 04:42:36;;;;;;;;;;;;;;;17.48;47.48;100883.81;4959533;28;1914;-52
2023/12/15 04:45:02;;;;;;;;;;;;;;;16.52;47.82;100892.38;4963044;28;1113;-51
2023/12/15 04:47:27;;;;;;;;;;;;;;;16.28;47.10;100890.50;4967620;28;1413;-53
2023/12/15 04:49:53;;;;;;;;;;;;;;;16.45;48.26;100897.28;4969129;28;1052;-52
2023/12/15 04:52:19;;;;;;;;;;;;;;;17.34;47.76;100906.09;4964620;28;1096;-51
2023/12/15 04:54:45;;;;;;;;;;;;;;;16.44;48.15;100923.94;4958723;28;1618;-55
2023/12/15 04:57:10;;;;;;;;;;;;;;;16.10;47.03;100933.28;4959543;28;1172;-50
2023/12/15 04:59:39;;;;;;;;;;;;;;;16.34;48.03;100931.69;4959432;28;1036;-50
2023/12/15 05:02:05;;;;;;;;;;;;;;;16.83;48.15;100929.22;4960284;28;1951;-53
2023/12/15 05:04:31;;;;;;;;;;;;;;;16.24;48.03;100936.78;4972766;28;1147;-49
2023/12/15 05:06:56;;;;;;;;;;;;;;;17.60;47.81;100960.03;4971965;28;1045;-53
2023/12/15 05:09:22;;;;;;;;;;;;;;;16.72;48.30;100967.16;4969798;28;905;-53
2023/12/15 05:11:47;;;;;;;;;;;;;;;16.23;47.47;100962.47;4972332;28;1137;-55
2023/12/15 05:14:13;;;;;;;;;;;;;;;16.06;46.63;100971.59;4966147;28;1117;-53
2023/12/15 05:16:39;;;;;;;;;;;;;;;16.95;47.81;100960.22;4978349;28;1156;-52
2023/12/15 05:19:04;;;;;;;;;;;;;;;16.26;47.48;100962.28;4978362;28;1033;-54
2023/12/15 05:21:30;;;;;;;;;;;;;;;15.93;47.28;100960.94;4969540;28;1055;-50
2023/12/15 05:23:58;;;;;;;;;;;;;;;16.37;48.41;100969.50;4971565;28;1910;-52
2023/12/15 05:26:25;;;;;;;;;;;;;;;18.02;46.57;100982.69;4958817;28;1251;-53
2023/12/15 05:28:51;;;;;;;;;;;;;;;17.69;46.53;100982.44;4971636;28;1084;-51
2023/12/15 05:31:16;;;;;;;;;;;;;;;17.13;48.05;101000.59;4966010;28;1135;-53
2023/12/15 05:33:42;;;;;;;;;;;;;;;16.77;48.83;100992.44;4973383;28;1136;-52
2023/12/15 05:36:08;;;;;;;;;;;;;;;16.55;49.34;100984.28;4977482;28;1143;-52
2023/12/15 05:38:33;;;;;;;;;;;;;;;16.30;49.44;100981.50;4964282;28;1192;-51
2023/12/15 05:40:59;;;;;;;;;;;;;;;16.20;49.33;101004.31;4976233;28;1198;-51
2023/12/15 05:43:24;;;;;;;;;;;;;;;16.42;49.07;101013.47;4956511;28;1914;-55
2023/12/15 05:45:50;;;;;;;;;;;;;;;16.35;49.13;101010.41;4958060;28;1193;-55
2023/12/15 05:48:16;;;;;;;;;;;;;;;15.93;50.02;101027.25;4966897;28;927;-53
2023/12/15 05:50:41;;;;;;;;;;;;;;;15.77;50.31;101022.94;4965876;28;1049;-52
2023/12/15 05:53:07;;;;;;;;;;;;;;;15.59;50.41;101034.75;4961679;28;1184;-54
2023/12/15 05:55:32;;;;;;;;;;;;;;;15.49;50.59;101045.09;4966508;28;1128;-52
2023/12/15 05:57:58;;;;;;;;;;;;;;;15.42;50.45;101057.88;4967681;28;931;-53
2023/12/15 06:00:23;;;;;;;;;;;;;;;16.81;48.71;101056.84;4962761;28;1199;-51
2023/12/15 06:02:49;;;;;;;;;;;;;;;16.50;49.04;101051.81;4967094;28;1986;-52
2023/12/15 06:05:14;;;;;;;;;;;;;;;16.16;49.60;101062.91;4955272;28;1425;-47
2023/12/15 06:07:40;;;;;;;;;;;;;;;15.79;50.46;101075.91;4975975;28;1200;-51
2023/12/15 06:10:06;;;;;;;;;;;;;;;15.49;50.80;101066.31;4967551;28;1081;-51
2023/12/15 06:12:31;;;;;;;;;;;;;;;15.99;50.47;101073.78;4962484;28;1163;-51
2023/12/15 06:14:56;;;;;;;;;;;;;;;17.14;47.54;101065.25;4958077;28;1342;-53
2023/12/15 06:17:22;;;;;;;;;;;;;;;16.30;49.43;101081.53;4966831;28;1413;-51
2023/12/15 06:19:47;;;;;;;;;;;;;;;15.92;50.23;101081.25;4973054;28;1148;-52
2023/12/15 06:22:13;;;;;;;;;;;;;;;15.68;50.64;101087.22;4960178;28;1914;-52
2023/12/15 06:24:40;;;;;;;;;;;;;;;16.45;49.41;101103.56;4957630;29;1090;-48
2023/12/15 06:27:05;;;;;;;;;;;;;;;17.03;47.44;101097.88;4952344;28;1057;-49
2023/12/15 06:29:31;;;;;;;;;;;;;;;16.24;49.51;101107.53;4939893;28;1153;-51
2023/12/15 06:31:56;;;;;;;;;;;;;;;16.23;49.41;101113.78;4965320;28;1234;-52
2023/12/15 06:34:22;;;;;;;;;;;;;;;15.72;50.28;101104.63;4965853;28;1088;-51
2023/12/15 06:36:47;;;;;;;;;;;;;;;16.78;48.57;101102.25;4973072;28;1107;-52
2023/12/15 06:39:13;;;;;;;;;;;;;;;17.19;46.91;101091.50;4977433;28;1199;-50
2023/12/15 06:41:38;;;;;;;;;;;;;;;16.31;48.92;101115.94;4964696;28;1910;-56
2023/12/15 06:44:05;;;;;;;;;;;;;;;15.98;49.67;101117.19;4967760;28;1200;-53
2023/12/15 06:46:31;;;;;;;;;;;;;;;15.79;50.32;101121.00;4962394;28;1154;-55
2023/12/15 06:48:56;;;;;;;;;;;;;;;15.83;50.32;101132.28;4967461;28;1049;-55
2023/12/15 06:51:22;;;;;;;;;;;;;;;17.30;47.14;101146.63;4961668;28;1216;-54
2023/12/15 06:53:47;;;;;;;;;;;;;;;16.59;48.17;101142.47;4964792;28;1349;-54
2023/12/15 06:56:13;;;;;;;;;;;;;;;16.06;49.44;101141.44;4960636;28;1223;-57
2023/12/15 06:58:38;;;;;;;;;;;;;;;15.85;50.06;101147.13;4965083;28;1338;-55
2023/12/15 07:01:04;;;;;;;;;;;;;;;16.37;48.39;101141.22;4971617;28;1115;-54
2023/12/15 07:03:30;;;;;;;;;;;;;;;15.58;49.99;101139.13;4970659;28;1981;-55
2023/12/15 07:05:55;;;;;;;;;;;;;;;16.86;48.15;101152.19;4957694;28;1076;-54
2023/12/15 07:08:21;;;;;;;;;;;;;;;17.04;47.34;101173.16;4957107;28;1242;-52
2023/12/15 07:10:46;;;;;;;;;;;;;;;16.24;49.17;101192.50;4964782;28;972;-54
2023/12/15 07:13:12;;;;;;;;;;;;;;;15.93;50.05;101185.59;4970362;28;967;-52
2023/12/15 07:15:37;;;;;;;;;;;;;;;15.60;50.58;101183.16;4957961;28;1235;-51
2023/12/15 07:18:03;;;;;;;;;;;;;;;15.51;50.82;101186.38;4957981;28;1291;-55
2023/12/15 07:20:28;;;;;;;;;;;;;;;15.67;50.78;101183.63;4966231;28;1032;-53
2023/12/15 07:22:54;;;;;;;;;;;;;;;17.11;47.17;101185.09;4972051;28;1910;-54
2023/12/15 07:25:19;;;;;;;;;;;;;;;16.65;48.04;101200.47;4961614;28;1033;-52
2023/12/15 07:27:45;;;;;;;;;;;;;;;15.97;49.86;101198.56;4974441;28;1168;-54
2023/12/15 07:30:12;;;;;;;;;;;;;;;15.67;50.17;101205.72;4963176;28;1606;-52
2023/12/15 07:32:37;;;;;;;;;;;;;;;15.45;50.72;101214.13;4961370;28;1091;-55
2023/12/15 07:35:04;;;;;;;;;;;;;;;15.81;50.36;101205.78;4962063;28;1397;-54
2023/12/15 07:37:29;;;;;;;;;;;;;;;17.21;46.91;101203.94;4960241;28;1514;-53
2023/12/15 07:39:55;;;;;;;;;;;;;;;16.60;47.99;101208.75;4961646;28;1241;-52
2023/12/15 07:42:20;;;;;;;;;;;;;;;15.99;49.36;101212.63;4959760;28;1972;-53
2023/12/15 07:44:46;;;;;;;;;;;;;;;15.64;50.55;101210.34;4973818;28;1057;-49
2023/12/15 07:47:12;;;;;;;;;;;;;;;15.51;50.50;101216.41;4962172;28;909;-55
2023/12/15 07:49:37;;;;;;;;;;;;;;;15.37;50.98;101219.88;4973455;28;1050;-53
2023/12/15 07:52:03;;;;;;;;;;;;;;;17.32;46.06;101232.44;4960229;28;1223;-53
2023/12/15 07:54:29;;;;;;;;;;;;;;;17.13;46.81;101241.69;4958459;28;1344;-57
2023/12/15 07:56:55;;;;;;;;;;;;;;;16.27;48.94;101245.38;4973736;28;1337;-56
2023/12/15 07:59:21;;;;;;;;;;;;;;;15.81;49.64;101259.72;4972972;28;890;-57
2023/12/15 08:01:50;;;;;;;;;;;;;;;15.75;50.43;101263.56;4975492;28;1963;-53
2023/12/15 08:04:16;;;;;;;;;;;;;;;17.27;46.96;101263.81;4979828;28;1090;-52
2023/12/15 08:06:42;;;;;;;;;;;;;;;16.55;48.01;101279.09;4960011;28;1447;-54
2023/12/15 08:09:08;;;;;;;;;;;;;;;15.95;49.43;101272.09;4960386;28;1327;-53
2023/12/15 08:11:33;;;;;;;;;;;;;;;15.72;49.82;101276.16;4974213;28;1355;-55
2023/12/15 08:13:59;;;;;;;;;;;;;;;15.76;50.38;101265.31;4979777;28;1064;-53
2023/12/15 08:16:24;;;;;;;;;;;;;;;17.25;46.68;101270.09;4963517;28;1227;-56
2023/12/15 08:18:50;;;;;;;;;;;;;;;16.45;48.30;101271.69;4960900;28;1211;-55
2023/12/15 08:21:15;;;;;;;;;;;;;;;15.91;49.40;101270.59;4973380;28;1061;-55
2023/12/15 08:23:41;;;;;;;;;;;;;;;15.68;50.21;101278.19;4974360;28;1906;-52
2023/12/15 08:26:07;;;;;;;;;;;;;;;15.60;50.06;101283.09;4978841;28;1033;-53
2023/12/15 08:28:32;;;;;;;;;;;;;;;16.26;49.47;101285.31;4965193;28;1315;-52
2023/12/15 08:30:58;;;;;;;;;;;;;;;17.43;46.34;101275.13;4977568;28;1210;-51
2023/12/15 08:33:24;;;;;;;;;;;;;;;16.63;48.65;101272.31;4959511;28;1074;-54
2023/12/15 08:35:50;;;;;;;;;;;;;;;17.77;46.59;101273.75;4959604;28;1334;-52
2023/12/15 08:38:15;;;;;;;;;;;;;;;17.81;45.77;101260.13;4972670;28;1097;-56
2023/12/15 08:40:41;;;;;;;;;;;;;;;16.81;48.42;101266.75;4968524;28;1239;-53
2023/12/15 08:43:06;;;;;;;;;;;;;;;16.39;49.21;101272.97;4960159;28;1969;-55
2023/12/15 08:45:32;;;;;;;;;;;;;;;16.11;50.02;101287.13;4959723;29;1386;-56
2023/12/15 08:47:57;;;;;;;;;;;;;;;15.87;50.20;101279.69;4959688;28;1397;-54
2023/12/15 08:50:23;;;;;;;;;;;;;;;15.86;50.13;101283.28;4959660;28;1299;-54
2023/12/15 08:52:49;;;;;;;;;;;;;;;15.74;50.63;101288.41;4958496;28;1291;-53
2023/12/15 08:55:15;;;;;;;;;;;;;;;17.18;48.18;101305.16;4959708;28;1374;-54
2023/12/15 08:57:40;;;;;;;;;;;;;;;16.50;49.41;101314.75;4960000;29;1129;-53
2023/12/15 09:00:06;;;;;;;;;;;;;;;16.05;50.24;101312.22;4961302;28;1267;-54
2023/12/15 09:02:33;;;;;;;;;;;;;;;15.67;50.70;101290.56;4959247;28;1910;-53
2023/12/15 09:05:00;;;;;;;;;;;;;;;15.49;51.13;101292.53;4973027;28;1193;-53
2023/12/15 09:07:26;;;;;;;;;;;;;;;15.86;50.93;101289.47;4975733;28;1110;-51
2023/12/15 09:09:51;;;;;;;;;;;;;;;17.20;47.93;101274.84;4963802;28;1065;-52
2023/12/15 09:12:17;;;;;;;;;;;;;;;16.44;49.13;101283.28;4964959;28;1267;-54
2023/12/15 09:14:42;;;;;;;;;;;;;;;15.86;50.84;101292.13;4958788;28;1374;-55
2023/12/15 09:17:11;;;;;;;;;;;;;;;15.62;50.88;101290.00;4965587;28;1365;-55
2023/12/15 09:19:38;;;;;;;;;;;;;;;16.06;50.59;101279.44;4969919;28;1096;-54
2023/12/15 09:22:05;;;;;;;;;;;;;;;17.32;47.34;101296.25;4958577;28;1910;-51
2023/12/15 09:24:30;;;;;;;;;;;;;;;16.35;49.50;101319.22;4974893;28;1322;-52
2023/12/15 09:26:56;;;;;;;;;;;;;;;15.83;50.43;101331.25;4966022;28;1032;-55
2023/12/15 09:29:21;;;;;;;;;;;;;;;15.65;50.76;101311.03;4965573;28;1168;-52
2023/12/15 09:31:47;;;;;;;;;;;;;;;15.77;51.14;101305.94;4971474;28;1145;-53
2023/12/15 09:34:13;;;;;;;;;;;;;;;17.27;47.78;101304.53;4972166;28;1010;-53
2023/12/15 09:36:39;;;;;;;;;;;;;;;16.40;49.35;101298.53;4961317;28;1026;-52
2023/12/15 09:39:04;;;;;;;;;;;;;;;15.89;50.39;101299.88;4957721;28;1302;-52
2023/12/15 09:41:30;;;;;;;;;;;;;;;15.61;51.02;101306.88;4957538;28;1434;-54
2023/12/15 09:43:55;;;;;;;;;;;;;;;15.78;51.21;101305.00;4947275;28;1971;-52
2023/12/15 09:46:21;;;;;;;;;;;;;;;17.16;47.89;101307.94;4966854;28;1506;-54
2023/12/15 09:48:46;;;;;;;;;;;;;;;16.27;49.40;101324.16;4971612;28;884;-52
2023/12/15 09:51:16;;;;;;;;;;;;;;;15.80;50.65;101324.31;4967628;28;1338;-52
2023/12/15 09:53:42;;;;;;;;;;;;;;;15.58;50.64;101327.41;4961794;28;1167;-55
2023/12/15 09:56:08;;;;;;;;;;;;;;;16.44;49.59;101322.25;4976443;28;1065;-53
2023/12/15 09:58:34;;;;;;;;;;;;;;;16.91;48.28;101335.25;4961187;28;1167;-53
2023/12/15 10:00:59;;;;;;;;;;;;;;;16.12;49.71;101341.91;4965714;28;1255;-53
2023/12/15 10:03:25;;;;;;;;;;;;;;;15.78;50.74;101350.94;4954653;28;1903;-54
2023/12/15 10:05:50;;;;;;;;;;;;;;;15.78;50.95;101356.22;4956115;29;1232;-52
2023/12/15 10:08:18;;;;;;;;;;;;;;;17.16;47.82;101361.09;4965002;28;1236;-52
2023/12/15 10:10:44;;;;;;;;;;;;;;;16.32;49.58;101355.72;4963732;28;1393;-56
2023/12/15 10:13:10;;;;;;;;;;;;;;;15.85;50.26;101348.75;4964568;28;1003;-53
2023/12/15 10:15:35;;;;;;;;;;;;;;;15.59;50.99;101345.00;4963268;28;1403;-54
2023/12/15 10:18:01;;;;;;;;;;;;;;;15.90;50.97;101364.41;4977085;28;1065;-54
2023/12/15 10:20:26;;;;;;;;;;;;;;;17.12;47.70;101364.91;4974637;28;1749;-52
2023/12/15 10:23:01;;;;;;;;;;;;;;;16.19;49.72;101363.59;4965631;28;1899;-52
2023/12/15 10:25:27;;;;;;;;;;;;;;;15.72;50.57;101353.09;4973806;28;1250;-52
2023/12/15 10:27:52;;;;;;;;;;;;;;;15.50;50.94;101367.63;4956674;28;1326;-53
2023/12/15 10:30:19;;;;;;;;;;;;;;;16.48;49.41;101367.09;4966927;28;1022;-53
2023/12/15 10:32:44;;;;;;;;;;;;;;;16.96;48.00;101357.91;4976941;28;1148;-54
2023/12/15 10:35:10;;;;;;;;;;;;;;;16.09;49.97;101368.63;4970342;28;1163;-54
2023/12/15 10:37:36;;;;;;;;;;;;;;;15.69;50.70;101380.66;4967773;28;1049;-53
2023/12/15 10:40:02;;;;;;;;;;;;;;;15.50;50.72;101397.66;4957517;28;1199;-54
2023/12/15 10:42:27;;;;;;;;;;;;;;;16.74;48.90;101407.13;4967124;28;1902;-52
2023/12/15 10:44:53;;;;;;;;;;;;;;;17.00;47.65;101393.09;4976346;28;1111;-53
2023/12/15 10:47:18;;;;;;;;;;;;;;;16.14;49.65;101385.13;4973155;28;1101;-53
2023/12/15 10:49:44;;;;;;;;;;;;;;;15.70;50.52;101377.06;4973055;28;1053;-53
2023/12/15 10:52:10;;;;;;;;;;;;;;;15.59;51.15;101387.44;4968971;28;1157;-54
2023/12/15 10:54:37;;;;;;;;;;;;;;;17.07;48.02;101378.47;4960137;28;1003;-53
2023/12/15 10:57:02;;;;;;;;;;;;;;;16.35;49.04;101374.16;4966538;28;1260;-53
2023/12/15 10:59:28;;;;;;;;;;;;;;;15.84;50.20;101391.31;4975345;28;1072;-53
2023/12/15 11:01:53;;;;;;;;;;;;;;;15.57;50.93;101392.84;4978198;28;1894;-56
2023/12/15 11:04:22;;;;;;;;;;;;;;;15.79;50.62;101399.53;4979809;28;1078;-55
2023/12/15 11:06:48;;;;;;;;;;;;;;;17.21;47.43;101387.38;4980480;28;1068;-54
2023/12/15 11:09:24;;;;;;;;;;;;;;;16.45;48.98;101393.84;4981109;28;1128;-54
2023/12/15 11:11:51;;;;;;;;;;;;;;;15.93;50.19;101392.56;4977246;28;1129;-49
2023/12/15 11:14:17;;;;;;;;;;;;;;;15.63;50.62;101413.69;4980441;28;1075;-55
2023/12/15 11:16:42;;;;;;;;;;;;;;;15.73;51.00;101414.00;4962499;28;1137;-50
2023/12/15 11:19:08;;;;;;;;;;;;;;;17.22;47.57;101399.72;4960141;29;1533;-53
2023/12/15 11:21:33;;;;;;;;;;;;;;;16.47;48.83;101418.53;4970102;28;1453;-52
2023/12/15 11:24:00;;;;;;;;;;;;;;;15.91;50.04;101430.63;4961008;28;1967;-54
2023/12/15 11:26:27;;;;;;;;;;;;;;;15.66;50.74;101429.44;4962764;28;1331;-55
2023/12/15 11:28:55;;;;;;;;;;;;;;;15.96;50.49;101437.47;4972420;28;1208;-54
2023/12/15 11:31:22;;;;;;;;;;;;;;;17.17;47.48;101425.75;4980023;28;1088;-52
2023/12/15 11:33:47;;;;;;;;;;;;;;;16.26;49.53;101426.88;4980288;28;1060;-54
2023/12/15 11:36:13;;;;;;;;;;;;;;;15.81;50.48;101433.94;4972446;28;1108;-53
2023/12/15 11:38:39;;;;;;;;;;;;;;;15.55;50.86;101451.28;4973915;28;1093;-54
2023/12/15 11:41:05;;;;;;;;;;;;;;;16.38;49.50;101459.75;4972719;28;1121;-49
2023/12/15 11:43:36;;;;;;;;;;;;;;;17.26;47.08;101457.06;4966604;28;1906;-53
2023/12/15 11:46:03;;;;;;;;;;;;;;;16.24;49.27;101459.75;4968731;28;1169;-50
2023/12/15 11:48:29;;;;;;;;;;;;;;;15.81;50.41;101452.50;4972434;28;1158;-53
2023/12/15 11:50:54;;;;;;;;;;;;;;;15.53;50.67;101455.81;4972658;28;1168;-53
2023/12/15 11:53:20;;;;;;;;;;;;;;;16.83;48.59;101464.13;4960253;28;1168;-53
2023/12/15 11:55:46;;;;;;;;;;;;;;;16.67;48.48;101474.00;4968759;28;1188;-54
2023/12/15 11:58:14;;;;;;;;;;;;;;;16.00;49.98;101468.22;4979862;28;1056;-52
2023/12/15 12:00:40;;;;;;;;;;;;;;;15.71;50.22;101476.94;4969571;28;847;-54
2023/12/15 12:03:05;;;;;;;;;;;;;;;15.38;50.81;101478.75;4960456;28;1906;-54
2023/12/15 12:05:32;;;;;;;;;;;;;;;16.18;50.09;101476.91;4968180;28;1169;-52
2023/12/15 12:07:59;;;;;;;;;;;;;;;17.38;47.07;101474.88;4966375;28;1096;-53
2023/12/15 12:10:30;;;;;;;;;;;;;;;16.42;49.08;101487.00;4980025;28;1080;-54
2023/12/15 12:12:56;;;;;;;;;;;;;;;15.90;49.81;101489.97;4970163;28;1017;-52
2023/12/15 12:15:22;;;;;;;;;;;;;;;15.67;50.61;101504.56;4979606;28;1190;-52
2023/12/15 12:17:47;;;;;;;;;;;;;;;15.85;50.66;101517.72;4976961;28;1092;-51
2023/12/15 12:20:13;;;;;;;;;;;;;;;17.25;47.40;101509.41;4960308;28;1131;-52
2023/12/15 12:22:41;;;;;;;;;;;;;;;16.47;48.61;101511.47;4962483;28;1976;-52
2023/12/15 12:25:07;;;;;;;;;;;;;;;15.90;49.98;101511.19;4968284;28;1019;-52
2023/12/15 12:27:33;;;;;;;;;;;;;;;15.62;50.44;101509.25;4971748;28;1264;-53
2023/12/15 12:29:59;;;;;;;;;;;;;;;16.70;48.86;101511.88;4969403;28;1161;-52
2023/12/15 12:32:25;;;;;;;;;;;;;;;16.98;47.46;101518.13;4966100;28;1052;-55
2023/12/15 12:34:50;;;;;;;;;;;;;;;16.17;49.47;101522.97;4979404;28;1156;-55
2023/12/15 12:37:17;;;;;;;;;;;;;;;15.77;50.40;101534.06;4968386;28;1116;-51
2023/12/15 12:39:42;;;;;;;;;;;;;;;15.56;50.94;101531.69;4972929;28;1247;-52